Motte Rimrock Reserve, California Weather observations

Data are for 10 minute period ending at time listed.
 Day   Time   Solar   Ave.   Ave.  Ave.  Vector  Max.   Baro.   Total    
  of    of     Rad.   Air    Rel.  Wind   Wind   Wind  Press.  Precip.   
Year   Day            Temp.  Hum.  Speed  Dir.   Gust                    
2015   (PST)  Kw/m2    F      %     mph   deg.    mph    mb.     in.     
-------------------------------------------------------------------------
 145   22:30   0.00   55.6    87    2.7    22     4.4   947.4    0.00 
 145   22:40   0.00   55.5    87    3.4    19     4.5   947.5    0.00 
 145   22:50   0.00   55.3    87    3.4   359     5.4   947.4    0.00 
 145   23:00   0.00   55.0    88    3.1   353     4.4   947.4    0.00 
 145   23:10   0.00   54.8    88    3.9   333     6.0   947.4    0.00 
 145   23:20   0.00   54.8    89    5.8   322     7.8   947.3    0.00 
 145   23:30   0.00   54.6    89    6.4   316     8.6   947.3    0.00 
 145   23:40   0.00   54.8    89    8.0   319    10.4   947.3    0.00 
 145   23:50   0.00   55.0    89    7.8   326     9.4   947.2    0.00 
 146    0:00   0.00   55.0    89    6.2   322     9.0   947.0    0.00 
 146    0:10   0.00   55.1    89    6.4   318    10.5   946.9    0.00 
 146    0:20   0.00   55.2    88    6.4   307     9.3   946.9    0.00 
 146    0:30   0.00   55.3    88    6.3   321    10.5   946.8    0.00 
 146    0:40   0.00   55.3    88    4.4   307     7.1   946.7    0.00 
 146    0:50   0.00   55.4    88    3.0   310     5.3   946.6    0.00 
 146    1:00   0.00   55.3    88    1.8   303     5.2   946.5    0.00 
 146    1:10   0.00   55.5    88    1.7   347     4.5   946.5    0.00 
 146    1:20   0.00   55.5    87    1.3     6     2.9   946.5    0.00 
 146    1:30   0.00   55.6    87    1.7   341     3.3   946.5    0.00 
 146    1:40   0.00   55.6    87    1.4    40     3.1   946.4    0.00 
 146    1:50   0.00   55.4    87    1.1    45     3.4   946.5    0.00 
 146    2:00   0.00   55.3    88    1.5   339     2.9   946.4    0.00 
 146    2:10   0.00   55.2    88    2.6    27     4.2   946.4    0.00 
 146    2:20   0.00   55.1    88    1.7   359     3.5   946.5    0.00 
 146    2:30   0.00   55.1    88    2.3   246     3.9   946.5    0.00 
 146    2:40   0.00   54.9    88    1.6   253     2.6   946.6    0.00 
 146    2:50   0.00   54.9    89    1.3   286     4.0   946.8    0.00 
 146    3:00   0.00   54.8    89    2.2   338     3.8   946.9    0.00 
 146    3:10   0.00   54.9    89    2.0   307     4.7   946.8    0.00 
 146    3:20   0.00   55.0    89    1.4   296     3.7   946.9    0.00 
 146    3:30   0.00   54.7    89    2.4   264     4.7   946.9    0.00 
 146    3:40   0.00   54.7    90    2.9   224     5.6   947.1    0.00 
 146    3:50   0.00   54.6    90    2.2   231     4.3   947.2    0.00 
 146    4:00   0.00   54.6    90    2.6   243     5.4   947.2    0.00 
 146    4:10   0.00   54.5    90    3.1   256     4.4   947.2    0.00 
 146    4:20   0.00   54.4    90    2.4   217     3.7   947.2    0.00 
 146    4:30   0.00   54.2    90    1.3   267     3.5   947.3    0.00 
 146    4:40   0.00   54.3    90    2.2   260     3.9   947.3    0.00 
 146    4:50   0.00   54.2    90    3.0   240     4.7   947.3    0.00 
 146    5:00   0.00   54.6    89    1.2   245     2.0   947.2    0.00 
 146    5:10   0.00   54.7    89    1.2   204     2.2   947.3    0.00 
 146    5:20   0.00   54.8    89    0.5   204     1.5   947.4    0.00 
 146    5:30   0.00   54.9    89    0.9   200     1.8   947.5    0.00 
 146    5:40   0.00   55.0    89    1.6   303     2.5   947.4    0.00 
 146    5:50   0.01   54.9    89    2.6   297     5.4   947.4    0.00 
 146    6:00   0.01   54.9    89    2.5   311     4.4   947.5    0.00 
 146    6:10   0.01   55.0    88    2.7   325     5.8   947.5    0.00 
 146    6:20   0.02   55.2    88    2.8   324     5.6   947.5    0.00 
 146    6:30   0.03   55.0    88    4.4   336     6.8   947.5    0.00 
 146    6:40   0.04   55.2    88    5.0   337     7.7   947.6    0.00 
 146    6:50   0.04   54.9    88    2.5   352     5.1   947.5    0.00 
 146    7:00   0.04   55.1    88    4.4   336     6.4   947.5    0.00 
 146    7:10   0.05   55.2    88    4.1   340     5.6   947.5    0.00 
 146    7:20   0.06   55.2    87    3.7   342     6.4   947.6    0.00 
 146    7:30   0.07   55.3    87    4.3   334     6.9   947.6    0.00 
 146    7:40   0.08   55.2    87    1.9   319     5.0   947.6    0.00 
 146    7:50   0.11   55.9    85    1.6    40     4.0   947.6    0.00 
 146    8:00   0.14   56.4    83    1.7     2     4.4   947.5    0.00 
 146    8:10   0.16   57.0    82    2.0    29     3.6   947.6    0.00 
 146    8:20   0.20   57.3    81    2.9   320     5.9   947.7    0.00 
 146    8:30   0.25   57.7    80    2.4   358     5.3   947.7    0.00 
 146    8:40   0.29   58.0    79    2.9    15     5.8   947.8    0.00 
 146    8:50   0.43   58.3    78    4.0    14     6.6   947.7    0.00 
 146    9:00   0.73   60.1    74    2.1    14     6.9   947.7    0.00 
 146    9:10   0.61   60.7    72    5.0   346     8.9   947.8    0.00 
 146    9:20   0.71   60.7    72    3.6   303     7.7   947.9    0.00 
 146    9:30   0.81   61.6    70    6.4   332    13.4   947.8    0.00 
 146    9:40   0.90   62.4    67    6.0   310    10.4   947.8    0.00 
 146    9:50   0.89   63.0    65    5.0   319     9.1   947.8    0.00 
 146   10:00   0.89   63.5    65    4.2   300     8.0   947.8    0.00 
 146   10:10   0.88   64.7    61    4.3   318     8.8   947.8    0.00 
 146   10:20   0.71   64.9    61    3.6   285     8.8   947.8    0.00 
 146   10:30   0.72   66.0    58    4.3   299    10.1   947.8    0.00 
 146   10:40   0.71   66.0    59    5.2   325    10.1   947.8    0.00 
 146   10:50   0.68   66.7    57    6.0   305     9.9   947.8    0.00 
 146   11:00   0.74   67.1    56    4.0   305     8.6   947.8    0.00 
 146   11:10   0.80   67.7    55    7.0   286    11.9   947.8    0.00 
 146   11:20   0.83   67.7    56    6.2   290    11.1   947.8    0.00 
 146   11:30   0.94   68.7    54    7.4   290    11.6   947.7    0.00 
 146   11:40   0.90   68.9    54    6.5   297    11.9   947.7    0.00 
 146   11:50   0.77   69.3    53    7.0   305    11.6   947.6    0.00 
 146   12:00   0.95   69.6    52    6.1   308    14.5   947.7    0.00 
 146   12:10   0.81   70.4    51    7.4   320    12.3   947.6    0.00 
 146   12:20   0.75   70.6    50    6.2   325    12.0   947.6    0.00 
 146   12:30   1.06   72.6    46    7.7   314    14.1   947.4    0.00 
 146   12:40   0.95   70.8    50    7.2   319    13.5   947.3    0.00 
 146   12:50   0.79   71.5    48    7.4   304    15.4   947.3    0.00 
 146   13:00   0.92   73.4    45    8.1   320    14.5   947.1    0.00 
 146   13:10   0.94   72.9    46    9.1   305    14.1   947.0    0.00 
 146   13:20   0.84   73.1    45    8.0   308    13.3   946.9    0.00 
 146   13:30   0.96   73.5    45    8.7   291    11.8   946.7    0.00 
 146   13:40   0.77   73.7    45   10.0   304    14.7   946.7    0.00 
 146   13:50   0.94   74.3    44   10.5   317    17.2   946.6    0.00 
 146   14:00   0.71   73.7    45    8.5   307    16.1   946.5    0.00 
 146   14:10   0.90   74.4    44   10.7   292    17.1   946.4    0.00 
 146   14:20   0.83   74.6    43    9.0   295    17.1   946.3    0.00 
 146   14:30   0.83   74.5    43   10.4   315    16.5   946.2    0.00 
 146   14:40   0.73   74.4    44   10.9   315    15.8   946.2    0.00 
 146   14:50   0.80   74.6    43   11.3   313    16.1   946.2    0.00 
 146   15:00   0.69   74.7    43   12.2   308    18.3   946.2    0.00 
 146   15:10   0.49   74.1    44   10.4   308    15.8   946.1    0.00 
 146   15:20   0.65   74.8    43   11.8   303    15.9   946.0    0.00 
 146   15:30   0.54   74.2    43   11.9   321    17.1   946.0    0.00 
 146   15:40   0.59   74.4    43   11.8   316    16.0   945.9    0.00 
 146   15:50   0.59   74.1    43   12.2   314    16.1   945.8    0.00 
 146   16:00   0.53   73.8    43   13.0   309    18.4   945.8    0.00 
 146   16:10   0.53   73.6    43   12.8   313    18.4   945.9    0.00 
 146   16:20   0.46   73.2    44   14.1   319    18.4   946.0    0.00 
 146   16:30   0.34   72.7    45   12.8   306    20.2   946.1    0.00 
 146   16:40   0.18   71.0    48   14.8   302    19.2   946.1    0.00 
 146   16:50   0.17   70.7    48   13.9   305    18.5   946.0    0.00 
 146   17:00   0.26   70.0    50   15.6   308    18.7   945.9    0.00 
 146   17:10   0.32   70.7    49   14.8   302    19.2   945.9    0.00 
 146   17:20   0.26   70.1    50   16.2   301    20.0   946.0    0.00 
 146   17:30   0.14   68.8    52   15.9   294    20.2   946.1    0.00 
 146   17:40   0.11   68.0    54   15.4   294    19.6   946.2    0.00 
 146   17:50   0.10   67.2    56   15.1   298    19.5   946.4    0.00 
 146   18:00   0.08   66.4    58   15.3   305    19.5   946.4    0.00 
 146   18:10   0.09   66.2    59   14.5   304    18.6   946.4    0.00 
 146   18:20   0.05   65.5    61   13.8   302    17.7   946.4    0.00 
 146   18:30   0.03   65.1    61   13.5   309    16.9   946.5    0.00 
 146   18:40   0.02   64.3    63   14.3   308    19.2   946.5    0.00 
 146   18:50   0.01   63.8    64   14.2   311    17.2   946.5    0.00 
 146   19:00   0.00   63.2    66   13.3   307    16.4   946.6    0.00 
 146   19:10   0.00   62.7    67   12.6   305    16.4   946.7    0.00 
 146   19:20   0.00   62.1    69   10.3   298    14.4   947.0    0.00 
 146   19:30   0.00   61.6    70    3.1   328     8.7   947.3    0.00 
 146   19:40   0.00   61.4    70    2.8   358     6.7   947.3    0.00 
 146   19:50   0.00   60.8    71    4.6   357     7.1   947.4    0.00 
 146   20:00   0.00   60.5    72    4.6     7     7.8   947.4    0.00 
 146   20:10   0.00   60.1    74    5.6     6     7.2   947.5    0.00 
 146   20:20   0.00   59.7    75    4.6    32     6.7   947.6    0.00 
 146   20:30   0.00   58.5    80    3.2    96     6.6   947.7    0.00 
 146   20:40   0.00   58.1    82    4.4    82     7.3   947.8    0.00 
 146   20:50   0.00   57.2    84    5.5   102     7.9   947.8    0.00 
 146   21:00   0.00   56.8    86    4.7   115     6.1   947.7    0.00 
 146   21:10   0.00   56.3    87    3.6   123     4.6   947.8    0.00 
 146   21:20   0.00   56.0    87    4.4   123     5.4   947.6    0.00 
 146   21:30   0.00   55.8    88    4.2   119     5.8   947.5    0.00 
 146   21:40   0.00   55.5    89    5.4   126     7.4   947.5    0.00 
 146   21:50   0.00   55.4    90    5.2   122     7.3   947.4    0.00 
 146   22:00   0.00   55.2    90    5.2   137     7.6   947.3    0.00 
 146   22:10   0.00   55.0    90    4.5   127     6.4   947.3    0.00 
 146   22:20   0.00   54.9    91    3.6   125     5.0   947.2    0.00 

Return to Motte Rimrock Reserve graphs page.


Western Regional Climate Center,wrcc@dri.edu